sensor_id;sensor_type;location;lat;lon;timestamp;P1;durP1;ratioP1;P2;durP2;ratioP2
7829;SDS011;3960;51.86894000;5.39848000;2023-05-16T00:00:49;22.08;;;3.10;;
7829;SDS011;3960;51.86894000;5.39848000;2023-05-16T00:03:17;13.35;;;2.50;;
7829;SDS011;3960;51.86894000;5.39848000;2023-05-16T00:05:43;22.73;;;3.38;;
7829;SDS011;3960;51.86894000;5.39848000;2023-05-16T00:08:08;14.23;;;2.85;;
7829;SDS011;3960;51.86894000;5.39848000;2023-05-16T00:10:33;18.25;;;3.08;;
7829;SDS011;3960;51.86894000;5.39848000;2023-05-16T00:12:59;11.95;;;2.80;;
7829;SDS011;3960;51.86894000;5.39848000;2023-05-16T00:15:25;14.27;;;2.72;;
7829;SDS011;3960;51.86894000;5.39848000;2023-05-16T00:17:53;17.13;;;2.80;;
7829;SDS011;3960;51.86894000;5.39848000;2023-05-16T00:20:22;19.35;;;2.90;;
7829;SDS011;3960;51.86894000;5.39848000;2023-05-16T00:22:48;12.13;;;2.47;;
7829;SDS011;3960;51.86894000;5.39848000;2023-05-16T00:25:16;17.02;;;3.15;;
7829;SDS011;3960;51.86894000;5.39848000;2023-05-16T00:27:42;20.95;;;3.60;;
7829;SDS011;3960;51.86894000;5.39848000;2023-05-16T00:30:07;17.25;;;2.50;;
7829;SDS011;3960;51.86894000;5.39848000;2023-05-16T00:32:34;16.75;;;2.72;;
7829;SDS011;3960;51.86894000;5.39848000;2023-05-16T00:35:00;17.17;;;2.55;;
7829;SDS011;3960;51.86894000;5.39848000;2023-05-16T00:37:25;16.13;;;2.33;;
7829;SDS011;3960;51.86894000;5.39848000;2023-05-16T00:39:50;15.90;;;2.42;;
7829;SDS011;3960;51.86894000;5.39848000;2023-05-16T00:42:17;17.13;;;2.60;;
7829;SDS011;3960;51.86894000;5.39848000;2023-05-16T00:44:43;16.17;;;2.90;;
7829;SDS011;3960;51.86894000;5.39848000;2023-05-16T00:47:09;17.02;;;2.67;;
7829;SDS011;3960;51.86894000;5.39848000;2023-05-16T00:49:34;13.20;;;2.67;;
7829;SDS011;3960;51.86894000;5.39848000;2023-05-16T00:51:59;12.40;;;2.30;;
7829;SDS011;3960;51.86894000;5.39848000;2023-05-16T00:54:25;16.90;;;2.55;;
7829;SDS011;3960;51.86894000;5.39848000;2023-05-16T00:56:53;14.35;;;2.70;;
7829;SDS011;3960;51.86894000;5.39848000;2023-05-16T00:59:18;11.20;;;2.50;;
7829;SDS011;3960;51.86894000;5.39848000;2023-05-16T01:01:45;16.00;;;2.70;;
7829;SDS011;3960;51.86894000;5.39848000;2023-05-16T01:04:11;13.30;;;2.47;;
7829;SDS011;3960;51.86894000;5.39848000;2023-05-16T01:06:37;10.43;;;2.67;;
7829;SDS011;3960;51.86894000;5.39848000;2023-05-16T01:09:03;16.67;;;3.25;;
7829;SDS011;3960;51.86894000;5.39848000;2023-05-16T01:16:39;13.85;;;2.20;;
7829;SDS011;3960;51.86894000;5.39848000;2023-05-16T01:22:15;15.15;;;2.70;;
7829;SDS011;3960;51.86894000;5.39848000;2023-05-16T01:25:04;12.13;;;2.28;;
7829;SDS011;3960;51.86894000;5.39848000;2023-05-16T01:27:48;17.48;;;2.65;;
7829;SDS011;3960;51.86894000;5.39848000;2023-05-16T01:30:16;13.80;;;2.67;;
7829;SDS011;3960;51.86894000;5.39848000;2023-05-16T01:32:43;15.38;;;2.42;;
7829;SDS011;3960;51.86894000;5.39848000;2023-05-16T01:35:09;17.08;;;2.17;;
7829;SDS011;3960;51.86894000;5.39848000;2023-05-16T01:37:38;11.85;;;2.30;;
7829;SDS011;3960;51.86894000;5.39848000;2023-05-16T01:40:11;6.97;;;2.00;;
7829;SDS011;3960;51.86894000;5.39848000;2023-05-16T01:42:44;15.27;;;3.33;;
7829;SDS011;3960;51.86894000;5.39848000;2023-05-16T01:47:50;13.75;;;3.03;;
7829;SDS011;3960;51.86894000;5.39848000;2023-05-16T01:50:19;18.58;;;3.15;;
7829;SDS011;3960;51.86894000;5.39848000;2023-05-16T01:52:53;11.23;;;2.50;;
7829;SDS011;3960;51.86894000;5.39848000;2023-05-16T01:55:41;12.35;;;2.47;;
7829;SDS011;3960;51.86894000;5.39848000;2023-05-16T01:58:10;11.27;;;2.40;;
7829;SDS011;3960;51.86894000;5.39848000;2023-05-16T02:00:36;16.63;;;2.20;;
7829;SDS011;3960;51.86894000;5.39848000;2023-05-16T02:03:01;11.20;;;2.20;;
7829;SDS011;3960;51.86894000;5.39848000;2023-05-16T02:05:27;12.23;;;2.38;;
7829;SDS011;3960;51.86894000;5.39848000;2023-05-16T02:07:52;20.50;;;3.33;;
7829;SDS011;3960;51.86894000;5.39848000;2023-05-16T02:10:18;15.13;;;2.60;;
7829;SDS011;3960;51.86894000;5.39848000;2023-05-16T02:12:44;12.45;;;2.60;;
7829;SDS011;3960;51.86894000;5.39848000;2023-05-16T02:15:09;12.68;;;2.70;;
7829;SDS011;3960;51.86894000;5.39848000;2023-05-16T02:17:35;14.43;;;2.63;;
7829;SDS011;3960;51.86894000;5.39848000;2023-05-16T02:20:00;16.70;;;2.60;;
7829;SDS011;3960;51.86894000;5.39848000;2023-05-16T02:22:30;16.30;;;2.47;;
7829;SDS011;3960;51.86894000;5.39848000;2023-05-16T02:24:57;15.07;;;2.33;;
7829;SDS011;3960;51.86894000;5.39848000;2023-05-16T02:27:22;12.43;;;2.55;;
7829;SDS011;3960;51.86894000;5.39848000;2023-05-16T02:29:48;12.55;;;2.22;;
7829;SDS011;3960;51.86894000;5.39848000;2023-05-16T02:32:13;11.77;;;2.65;;
7829;SDS011;3960;51.86894000;5.39848000;2023-05-16T02:34:38;16.10;;;3.22;;
7829;SDS011;3960;51.86894000;5.39848000;2023-05-16T02:37:03;16.58;;;2.63;;
7829;SDS011;3960;51.86894000;5.39848000;2023-05-16T02:39:29;8.48;;;2.45;;
7829;SDS011;3960;51.86894000;5.39848000;2023-05-16T02:41:56;17.92;;;2.55;;
7829;SDS011;3960;51.86894000;5.39848000;2023-05-16T02:44:21;11.90;;;2.67;;
7829;SDS011;3960;51.86894000;5.39848000;2023-05-16T02:46:47;14.60;;;3.17;;
7829;SDS011;3960;51.86894000;5.39848000;2023-05-16T02:49:12;15.68;;;2.53;;
7829;SDS011;3960;51.86894000;5.39848000;2023-05-16T02:51:37;13.65;;;2.30;;
7829;SDS011;3960;51.86894000;5.39848000;2023-05-16T02:54:02;11.57;;;2.35;;
7829;SDS011;3960;51.86894000;5.39848000;2023-05-16T02:56:28;12.48;;;3.03;;
7829;SDS011;3960;51.86894000;5.39848000;2023-05-16T02:58:54;11.25;;;2.40;;
7829;SDS011;3960;51.86894000;5.39848000;2023-05-16T03:01:20;13.32;;;2.38;;
7829;SDS011;3960;51.86894000;5.39848000;2023-05-16T03:03:45;13.43;;;2.55;;
7829;SDS011;3960;51.86894000;5.39848000;2023-05-16T03:06:11;12.85;;;2.38;;
7829;SDS011;3960;51.86894000;5.39848000;2023-05-16T03:08:36;13.80;;;2.72;;
7829;SDS011;3960;51.86894000;5.39848000;2023-05-16T03:11:01;12.02;;;2.95;;
7829;SDS011;3960;51.86894000;5.39848000;2023-05-16T03:13:27;13.82;;;2.50;;
7829;SDS011;3960;51.86894000;5.39848000;2023-05-16T03:15:54;11.45;;;1.95;;
7829;SDS011;3960;51.86894000;5.39848000;2023-05-16T03:18:19;15.48;;;2.72;;
7829;SDS011;3960;51.86894000;5.39848000;2023-05-16T03:20:45;15.52;;;3.17;;
7829;SDS011;3960;51.86894000;5.39848000;2023-05-16T03:23:10;19.83;;;3.08;;
7829;SDS011;3960;51.86894000;5.39848000;2023-05-16T03:25:36;11.85;;;2.33;;
7829;SDS011;3960;51.86894000;5.39848000;2023-05-16T03:28:05;15.05;;;2.80;;
7829;SDS011;3960;51.86894000;5.39848000;2023-05-16T03:30:34;12.05;;;2.20;;
7829;SDS011;3960;51.86894000;5.39848000;2023-05-16T03:32:59;11.65;;;3.40;;
7829;SDS011;3960;51.86894000;5.39848000;2023-05-16T03:35:25;16.52;;;2.58;;
7829;SDS011;3960;51.86894000;5.39848000;2023-05-16T03:37:50;18.35;;;2.40;;
7829;SDS011;3960;51.86894000;5.39848000;2023-05-16T03:40:16;16.83;;;2.55;;
7829;SDS011;3960;51.86894000;5.39848000;2023-05-16T03:42:41;15.60;;;2.90;;
7829;SDS011;3960;51.86894000;5.39848000;2023-05-16T03:45:07;14.25;;;2.78;;
7829;SDS011;3960;51.86894000;5.39848000;2023-05-16T03:47:32;12.93;;;2.78;;
7829;SDS011;3960;51.86894000;5.39848000;2023-05-16T03:49:58;12.02;;;2.85;;
7829;SDS011;3960;51.86894000;5.39848000;2023-05-16T03:52:23;13.48;;;2.50;;
7829;SDS011;3960;51.86894000;5.39848000;2023-05-16T03:54:49;11.10;;;2.40;;
7829;SDS011;3960;51.86894000;5.39848000;2023-05-16T03:57:14;12.25;;;2.53;;
7829;SDS011;3960;51.86894000;5.39848000;2023-05-16T03:59:40;15.80;;;2.33;;
7829;SDS011;3960;51.86894000;5.39848000;2023-05-16T04:02:05;18.00;;;2.67;;
7829;SDS011;3960;51.86894000;5.39848000;2023-05-16T04:04:30;13.38;;;3.05;;
7829;SDS011;3960;51.86894000;5.39848000;2023-05-16T04:06:56;10.27;;;2.20;;
7829;SDS011;3960;51.86894000;5.39848000;2023-05-16T04:09:21;9.07;;;2.50;;
7829;SDS011;3960;51.86894000;5.39848000;2023-05-16T04:11:46;15.50;;;3.40;;
7829;SDS011;3960;51.86894000;5.39848000;2023-05-16T04:14:12;13.05;;;2.63;;
7829;SDS011;3960;51.86894000;5.39848000;2023-05-16T04:16:37;19.25;;;3.00;;
7829;SDS011;3960;51.86894000;5.39848000;2023-05-16T04:19:02;13.80;;;2.80;;
7829;SDS011;3960;51.86894000;5.39848000;2023-05-16T04:21:28;14.73;;;2.55;;
7829;SDS011;3960;51.86894000;5.39848000;2023-05-16T04:23:53;13.70;;;2.80;;
7829;SDS011;3960;51.86894000;5.39848000;2023-05-16T04:26:18;13.00;;;3.00;;
7829;SDS011;3960;51.86894000;5.39848000;2023-05-16T04:28:45;12.30;;;3.08;;
7829;SDS011;3960;51.86894000;5.39848000;2023-05-16T04:31:11;15.00;;;2.83;;
7829;SDS011;3960;51.86894000;5.39848000;2023-05-16T04:33:38;15.88;;;3.90;;
7829;SDS011;3960;51.86894000;5.39848000;2023-05-16T04:36:03;12.25;;;2.55;;
7829;SDS011;3960;51.86894000;5.39848000;2023-05-16T04:38:29;11.15;;;3.05;;
7829;SDS011;3960;51.86894000;5.39848000;2023-05-16T04:40:55;17.63;;;3.05;;
7829;SDS011;3960;51.86894000;5.39848000;2023-05-16T04:43:21;17.27;;;3.25;;
7829;SDS011;3960;51.86894000;5.39848000;2023-05-16T04:45:47;17.25;;;3.10;;
7829;SDS011;3960;51.86894000;5.39848000;2023-05-16T04:48:12;18.55;;;3.13;;
7829;SDS011;3960;51.86894000;5.39848000;2023-05-16T04:50:38;12.02;;;2.80;;
7829;SDS011;3960;51.86894000;5.39848000;2023-05-16T04:53:03;15.98;;;3.92;;
7829;SDS011;3960;51.86894000;5.39848000;2023-05-16T04:55:28;16.98;;;3.60;;
7829;SDS011;3960;51.86894000;5.39848000;2023-05-16T04:57:54;8.57;;;2.65;;
7829;SDS011;3960;51.86894000;5.39848000;2023-05-16T05:00:20;11.10;;;3.28;;
7829;SDS011;3960;51.86894000;5.39848000;2023-05-16T05:02:45;13.07;;;2.78;;
7829;SDS011;3960;51.86894000;5.39848000;2023-05-16T05:05:10;13.13;;;3.10;;
7829;SDS011;3960;51.86894000;5.39848000;2023-05-16T05:07:36;15.25;;;3.67;;
7829;SDS011;3960;51.86894000;5.39848000;2023-05-16T05:10:01;12.65;;;3.20;;
7829;SDS011;3960;51.86894000;5.39848000;2023-05-16T05:12:26;15.52;;;3.25;;
7829;SDS011;3960;51.86894000;5.39848000;2023-05-16T05:14:52;9.27;;;2.58;;
7829;SDS011;3960;51.86894000;5.39848000;2023-05-16T05:17:18;17.20;;;2.85;;
7829;SDS011;3960;51.86894000;5.39848000;2023-05-16T05:19:44;18.13;;;3.05;;
7829;SDS011;3960;51.86894000;5.39848000;2023-05-16T05:22:10;11.48;;;2.85;;
7829;SDS011;3960;51.86894000;5.39848000;2023-05-16T05:24:35;12.27;;;3.30;;
7829;SDS011;3960;51.86894000;5.39848000;2023-05-16T05:27:01;11.85;;;2.42;;
7829;SDS011;3960;51.86894000;5.39848000;2023-05-16T05:29:26;13.27;;;3.03;;
7829;SDS011;3960;51.86894000;5.39848000;2023-05-16T05:31:52;13.35;;;2.90;;
7829;SDS011;3960;51.86894000;5.39848000;2023-05-16T05:34:17;10.77;;;2.90;;
7829;SDS011;3960;51.86894000;5.39848000;2023-05-16T05:36:42;12.90;;;3.30;;
7829;SDS011;3960;51.86894000;5.39848000;2023-05-16T05:39:08;18.05;;;3.25;;
7829;SDS011;3960;51.86894000;5.39848000;2023-05-16T05:41:34;15.38;;;2.83;;
7829;SDS011;3960;51.86894000;5.39848000;2023-05-16T05:43:59;14.77;;;2.67;;
7829;SDS011;3960;51.86894000;5.39848000;2023-05-16T05:46:24;13.65;;;2.63;;
7829;SDS011;3960;51.86894000;5.39848000;2023-05-16T05:48:50;11.23;;;2.53;;
7829;SDS011;3960;51.86894000;5.39848000;2023-05-16T05:51:16;7.75;;;2.10;;
7829;SDS011;3960;51.86894000;5.39848000;2023-05-16T05:53:41;16.92;;;2.83;;
7829;SDS011;3960;51.86894000;5.39848000;2023-05-16T05:56:07;10.02;;;2.70;;
7829;SDS011;3960;51.86894000;5.39848000;2023-05-16T05:58:33;12.57;;;2.72;;
7829;SDS011;3960;51.86894000;5.39848000;2023-05-16T06:00:58;8.48;;;2.33;;
7829;SDS011;3960;51.86894000;5.39848000;2023-05-16T06:03:24;10.20;;;2.20;;
7829;SDS011;3960;51.86894000;5.39848000;2023-05-16T06:05:49;12.35;;;2.75;;
7829;SDS011;3960;51.86894000;5.39848000;2023-05-16T06:08:14;9.85;;;2.28;;
7829;SDS011;3960;51.86894000;5.39848000;2023-05-16T06:10:40;9.18;;;2.45;;
7829;SDS011;3960;51.86894000;5.39848000;2023-05-16T06:13:05;9.93;;;2.22;;
7829;SDS011;3960;51.86894000;5.39848000;2023-05-16T06:15:30;10.50;;;2.50;;
7829;SDS011;3960;51.86894000;5.39848000;2023-05-16T06:17:56;7.43;;;1.98;;
7829;SDS011;3960;51.86894000;5.39848000;2023-05-16T06:20:21;9.70;;;2.03;;
7829;SDS011;3960;51.86894000;5.39848000;2023-05-16T06:22:47;8.27;;;2.05;;
7829;SDS011;3960;51.86894000;5.39848000;2023-05-16T06:25:12;10.00;;;1.98;;
7829;SDS011;3960;51.86894000;5.39848000;2023-05-16T06:27:38;6.30;;;1.67;;
7829;SDS011;3960;51.86894000;5.39848000;2023-05-16T06:30:03;10.45;;;1.70;;
7829;SDS011;3960;51.86894000;5.39848000;2023-05-16T06:32:29;9.68;;;1.80;;
7829;SDS011;3960;51.86894000;5.39848000;2023-05-16T06:34:54;7.78;;;1.90;;
7829;SDS011;3960;51.86894000;5.39848000;2023-05-16T06:37:19;9.10;;;1.95;;
7829;SDS011;3960;51.86894000;5.39848000;2023-05-16T06:39:45;7.90;;;1.77;;
7829;SDS011;3960;51.86894000;5.39848000;2023-05-16T06:42:10;9.43;;;1.98;;
7829;SDS011;3960;51.86894000;5.39848000;2023-05-16T06:44:35;7.93;;;2.13;;
7829;SDS011;3960;51.86894000;5.39848000;2023-05-16T06:47:00;11.00;;;1.88;;
7829;SDS011;3960;51.86894000;5.39848000;2023-05-16T06:49:26;4.38;;;1.58;;
7829;SDS011;3960;51.86894000;5.39848000;2023-05-16T06:51:51;9.48;;;1.73;;
7829;SDS011;3960;51.86894000;5.39848000;2023-05-16T06:54:16;7.55;;;2.22;;
7829;SDS011;3960;51.86894000;5.39848000;2023-05-16T06:56:41;7.03;;;1.50;;
7829;SDS011;3960;51.86894000;5.39848000;2023-05-16T06:59:07;5.05;;;1.45;;
7829;SDS011;3960;51.86894000;5.39848000;2023-05-16T07:01:32;7.88;;;2.10;;
7829;SDS011;3960;51.86894000;5.39848000;2023-05-16T07:03:57;5.38;;;2.00;;
7829;SDS011;3960;51.86894000;5.39848000;2023-05-16T07:06:22;4.00;;;1.63;;
7829;SDS011;3960;51.86894000;5.39848000;2023-05-16T07:08:48;6.90;;;1.73;;
7829;SDS011;3960;51.86894000;5.39848000;2023-05-16T07:11:13;4.60;;;1.52;;
7829;SDS011;3960;51.86894000;5.39848000;2023-05-16T07:13:38;5.90;;;1.45;;
7829;SDS011;3960;51.86894000;5.39848000;2023-05-16T07:16:04;9.45;;;2.03;;
7829;SDS011;3960;51.86894000;5.39848000;2023-05-16T07:18:31;9.98;;;2.05;;
7829;SDS011;3960;51.86894000;5.39848000;2023-05-16T07:20:56;10.02;;;2.17;;
7829;SDS011;3960;51.86894000;5.39848000;2023-05-16T07:23:22;6.15;;;1.35;;
7829;SDS011;3960;51.86894000;5.39848000;2023-05-16T07:25:47;9.88;;;1.60;;
7829;SDS011;3960;51.86894000;5.39848000;2023-05-16T07:28:12;6.90;;;1.52;;
7829;SDS011;3960;51.86894000;5.39848000;2023-05-16T07:30:38;8.63;;;1.35;;
7829;SDS011;3960;51.86894000;5.39848000;2023-05-16T07:33:03;6.55;;;1.65;;
7829;SDS011;3960;51.86894000;5.39848000;2023-05-16T07:35:28;9.02;;;1.83;;
7829;SDS011;3960;51.86894000;5.39848000;2023-05-16T07:37:54;7.38;;;1.67;;
7829;SDS011;3960;51.86894000;5.39848000;2023-05-16T07:40:19;6.80;;;1.67;;
7829;SDS011;3960;51.86894000;5.39848000;2023-05-16T07:42:49;6.70;;;1.83;;
7829;SDS011;3960;51.86894000;5.39848000;2023-05-16T07:45:14;9.02;;;1.60;;
7829;SDS011;3960;51.86894000;5.39848000;2023-05-16T07:47:40;5.63;;;1.80;;
7829;SDS011;3960;51.86894000;5.39848000;2023-05-16T07:50:06;4.53;;;1.63;;
7829;SDS011;3960;51.86894000;5.39848000;2023-05-16T07:52:31;5.97;;;1.48;;
7829;SDS011;3960;51.86894000;5.39848000;2023-05-16T07:54:56;3.80;;;1.10;;
7829;SDS011;3960;51.86894000;5.39848000;2023-05-16T07:57:22;2.17;;;1.00;;
7829;SDS011;3960;51.86894000;5.39848000;2023-05-16T07:59:48;4.72;;;1.38;;
7829;SDS011;3960;51.86894000;5.39848000;2023-05-16T08:02:14;9.30;;;1.23;;
7829;SDS011;3960;51.86894000;5.39848000;2023-05-16T08:04:40;6.05;;;1.10;;
7829;SDS011;3960;51.86894000;5.39848000;2023-05-16T08:07:05;8.23;;;1.40;;
7829;SDS011;3960;51.86894000;5.39848000;2023-05-16T08:09:31;5.32;;;1.52;;
7829;SDS011;3960;51.86894000;5.39848000;2023-05-16T08:11:56;5.75;;;1.20;;
7829;SDS011;3960;51.86894000;5.39848000;2023-05-16T08:14:22;3.20;;;0.98;;
7829;SDS011;3960;51.86894000;5.39848000;2023-05-16T08:16:48;6.65;;;1.35;;
7829;SDS011;3960;51.86894000;5.39848000;2023-05-16T08:19:13;4.28;;;1.27;;
7829;SDS011;3960;51.86894000;5.39848000;2023-05-16T08:21:38;6.82;;;1.50;;
7829;SDS011;3960;51.86894000;5.39848000;2023-05-16T08:24:04;5.72;;;1.35;;
7829;SDS011;3960;51.86894000;5.39848000;2023-05-16T08:26:31;8.10;;;1.63;;
7829;SDS011;3960;51.86894000;5.39848000;2023-05-16T08:28:56;7.50;;;1.52;;
7829;SDS011;3960;51.86894000;5.39848000;2023-05-16T08:31:21;7.00;;;1.67;;
7829;SDS011;3960;51.86894000;5.39848000;2023-05-16T08:33:47;4.38;;;1.38;;
7829;SDS011;3960;51.86894000;5.39848000;2023-05-16T08:36:12;6.95;;;1.55;;
7829;SDS011;3960;51.86894000;5.39848000;2023-05-16T08:38:39;7.95;;;1.17;;
7829;SDS011;3960;51.86894000;5.39848000;2023-05-16T08:41:05;5.18;;;1.20;;
7829;SDS011;3960;51.86894000;5.39848000;2023-05-16T08:43:30;5.45;;;1.60;;
7829;SDS011;3960;51.86894000;5.39848000;2023-05-16T08:45:55;7.45;;;1.38;;
7829;SDS011;3960;51.86894000;5.39848000;2023-05-16T08:48:21;6.10;;;1.20;;
7829;SDS011;3960;51.86894000;5.39848000;2023-05-16T08:50:48;6.35;;;1.23;;
7829;SDS011;3960;51.86894000;5.39848000;2023-05-16T08:53:14;5.88;;;1.40;;
7829;SDS011;3960;51.86894000;5.39848000;2023-05-16T08:55:45;5.57;;;1.52;;
7829;SDS011;3960;51.86894000;5.39848000;2023-05-16T08:58:12;4.45;;;1.13;;
7829;SDS011;3960;51.86894000;5.39848000;2023-05-16T09:00:38;8.85;;;2.00;;
7829;SDS011;3960;51.86894000;5.39848000;2023-05-16T09:03:04;6.43;;;1.00;;
7829;SDS011;3960;51.86894000;5.39848000;2023-05-16T09:05:29;4.60;;;1.20;;
7829;SDS011;3960;51.86894000;5.39848000;2023-05-16T09:07:55;1.98;;;1.10;;
7829;SDS011;3960;51.86894000;5.39848000;2023-05-16T09:10:21;5.40;;;0.90;;
7829;SDS011;3960;51.86894000;5.39848000;2023-05-16T09:12:46;5.72;;;1.70;;
7829;SDS011;3960;51.86894000;5.39848000;2023-05-16T09:15:11;6.22;;;1.20;;
7829;SDS011;3960;51.86894000;5.39848000;2023-05-16T09:17:38;5.07;;;1.02;;
7829;SDS011;3960;51.86894000;5.39848000;2023-05-16T09:22:37;7.47;;;1.30;;
7829;SDS011;3960;51.86894000;5.39848000;2023-05-16T09:25:03;2.78;;;1.08;;
7829;SDS011;3960;51.86894000;5.39848000;2023-05-16T09:27:29;5.32;;;1.73;;
7829;SDS011;3960;51.86894000;5.39848000;2023-05-16T09:29:56;8.15;;;1.25;;
7829;SDS011;3960;51.86894000;5.39848000;2023-05-16T09:32:23;3.35;;;1.05;;
7829;SDS011;3960;51.86894000;5.39848000;2023-05-16T09:34:51;5.47;;;1.38;;
7829;SDS011;3960;51.86894000;5.39848000;2023-05-16T09:37:17;4.30;;;1.50;;
7829;SDS011;3960;51.86894000;5.39848000;2023-05-16T09:39:46;7.25;;;1.67;;
7829;SDS011;3960;51.86894000;5.39848000;2023-05-16T09:42:13;4.68;;;0.85;;
7829;SDS011;3960;51.86894000;5.39848000;2023-05-16T09:44:46;3.72;;;1.27;;
7829;SDS011;3960;51.86894000;5.39848000;2023-05-16T09:47:14;6.18;;;1.60;;
7829;SDS011;3960;51.86894000;5.39848000;2023-05-16T09:49:40;4.97;;;1.55;;
7829;SDS011;3960;51.86894000;5.39848000;2023-05-16T09:52:06;7.55;;;1.83;;
7829;SDS011;3960;51.86894000;5.39848000;2023-05-16T09:54:31;5.82;;;1.27;;
7829;SDS011;3960;51.86894000;5.39848000;2023-05-16T09:56:57;9.25;;;1.60;;
7829;SDS011;3960;51.86894000;5.39848000;2023-05-16T09:59:24;3.03;;;1.10;;
7829;SDS011;3960;51.86894000;5.39848000;2023-05-16T10:01:49;5.38;;;1.65;;
7829;SDS011;3960;51.86894000;5.39848000;2023-05-16T10:04:17;7.20;;;1.42;;
7829;SDS011;3960;51.86894000;5.39848000;2023-05-16T10:06:42;5.22;;;1.35;;
7829;SDS011;3960;51.86894000;5.39848000;2023-05-16T10:09:11;5.53;;;1.10;;
7829;SDS011;3960;51.86894000;5.39848000;2023-05-16T10:11:40;4.43;;;1.58;;
7829;SDS011;3960;51.86894000;5.39848000;2023-05-16T10:14:07;4.72;;;1.50;;
7829;SDS011;3960;51.86894000;5.39848000;2023-05-16T10:16:34;5.15;;;1.38;;
7829;SDS011;3960;51.86894000;5.39848000;2023-05-16T10:18:59;2.63;;;1.13;;
7829;SDS011;3960;51.86894000;5.39848000;2023-05-16T10:21:28;4.65;;;1.20;;
7829;SDS011;3960;51.86894000;5.39848000;2023-05-16T10:23:55;7.55;;;1.40;;
7829;SDS011;3960;51.86894000;5.39848000;2023-05-16T10:26:22;7.38;;;1.10;;
7829;SDS011;3960;51.86894000;5.39848000;2023-05-16T10:28:49;6.00;;;1.48;;
7829;SDS011;3960;51.86894000;5.39848000;2023-05-16T10:31:15;3.40;;;1.13;;
7829;SDS011;3960;51.86894000;5.39848000;2023-05-16T10:33:42;3.08;;;0.95;;
7829;SDS011;3960;51.86894000;5.39848000;2023-05-16T10:36:08;4.38;;;0.85;;
7829;SDS011;3960;51.86894000;5.39848000;2023-05-16T10:38:35;2.60;;;1.10;;
7829;SDS011;3960;51.86894000;5.39848000;2023-05-16T10:41:01;6.28;;;1.23;;
7829;SDS011;3960;51.86894000;5.39848000;2023-05-16T10:43:30;4.35;;;1.33;;
7829;SDS011;3960;51.86894000;5.39848000;2023-05-16T10:45:58;4.50;;;1.20;;
7829;SDS011;3960;51.86894000;5.39848000;2023-05-16T10:48:28;4.78;;;1.35;;
7829;SDS011;3960;51.86894000;5.39848000;2023-05-16T10:51:01;4.47;;;1.30;;
7829;SDS011;3960;51.86894000;5.39848000;2023-05-16T11:03:58;3.35;;;1.23;;
7829;SDS011;3960;51.86894000;5.39848000;2023-05-16T11:09:28;4.63;;;1.80;;
7829;SDS011;3960;51.86894000;5.39848000;2023-05-16T11:11:55;6.57;;;1.90;;
7829;SDS011;3960;51.86894000;5.39848000;2023-05-16T11:16:50;4.03;;;1.40;;
7829;SDS011;3960;51.86894000;5.39848000;2023-05-16T11:19:30;6.07;;;1.67;;
7829;SDS011;3960;51.86894000;5.39848000;2023-05-16T11:24:36;4.43;;;1.25;;
7829;SDS011;3960;51.86894000;5.39848000;2023-05-16T11:27:03;7.30;;;1.70;;
7829;SDS011;3960;51.86894000;5.39848000;2023-05-16T11:29:32;5.75;;;1.40;;
7829;SDS011;3960;51.86894000;5.39848000;2023-05-16T11:31:59;5.30;;;1.27;;
7829;SDS011;3960;51.86894000;5.39848000;2023-05-16T11:34:25;6.18;;;1.58;;
7829;SDS011;3960;51.86894000;5.39848000;2023-05-16T11:36:51;5.65;;;1.60;;
7829;SDS011;3960;51.86894000;5.39848000;2023-05-16T11:39:16;4.55;;;1.50;;
7829;SDS011;3960;51.86894000;5.39848000;2023-05-16T11:41:43;2.92;;;1.27;;
7829;SDS011;3960;51.86894000;5.39848000;2023-05-16T11:44:10;2.30;;;0.77;;
7829;SDS011;3960;51.86894000;5.39848000;2023-05-16T11:46:37;5.47;;;1.20;;
7829;SDS011;3960;51.86894000;5.39848000;2023-05-16T11:49:03;3.33;;;1.10;;
7829;SDS011;3960;51.86894000;5.39848000;2023-05-16T11:51:28;6.15;;;1.20;;
7829;SDS011;3960;51.86894000;5.39848000;2023-05-16T11:53:55;4.95;;;1.30;;
7829;SDS011;3960;51.86894000;5.39848000;2023-05-16T11:56:20;6.97;;;1.30;;
7829;SDS011;3960;51.86894000;5.39848000;2023-05-16T11:58:48;2.92;;;1.20;;
7829;SDS011;3960;51.86894000;5.39848000;2023-05-16T12:01:14;3.58;;;1.15;;
7829;SDS011;3960;51.86894000;5.39848000;2023-05-16T12:03:39;2.13;;;1.05;;
7829;SDS011;3960;51.86894000;5.39848000;2023-05-16T12:06:05;3.25;;;1.13;;
7829;SDS011;3960;51.86894000;5.39848000;2023-05-16T12:08:30;2.90;;;1.10;;
7829;SDS011;3960;51.86894000;5.39848000;2023-05-16T12:10:56;4.68;;;1.13;;
7829;SDS011;3960;51.86894000;5.39848000;2023-05-16T12:13:22;5.70;;;1.50;;
7829;SDS011;3960;51.86894000;5.39848000;2023-05-16T12:15:48;9.32;;;1.63;;
7829;SDS011;3960;51.86894000;5.39848000;2023-05-16T12:18:16;4.35;;;1.15;;
7829;SDS011;3960;51.86894000;5.39848000;2023-05-16T12:20:42;7.40;;;2.00;;
7829;SDS011;3960;51.86894000;5.39848000;2023-05-16T12:23:11;4.07;;;1.52;;
7829;SDS011;3960;51.86894000;5.39848000;2023-05-16T12:25:38;4.25;;;1.42;;
7829;SDS011;3960;51.86894000;5.39848000;2023-05-16T12:28:10;7.80;;;1.38;;
7829;SDS011;3960;51.86894000;5.39848000;2023-05-16T12:30:39;5.72;;;1.65;;
7829;SDS011;3960;51.86894000;5.39848000;2023-05-16T12:33:07;5.40;;;1.15;;
7829;SDS011;3960;51.86894000;5.39848000;2023-05-16T12:35:34;4.63;;;1.42;;
7829;SDS011;3960;51.86894000;5.39848000;2023-05-16T12:38:05;6.35;;;1.00;;
7829;SDS011;3960;51.86894000;5.39848000;2023-05-16T12:40:38;3.20;;;1.17;;
7829;SDS011;3960;51.86894000;5.39848000;2023-05-16T12:43:11;3.55;;;1.15;;
7829;SDS011;3960;51.86894000;5.39848000;2023-05-16T12:45:41;5.63;;;1.50;;
7829;SDS011;3960;51.86894000;5.39848000;2023-05-16T12:48:11;5.57;;;1.30;;
7829;SDS011;3960;51.86894000;5.39848000;2023-05-16T12:50:37;4.80;;;1.30;;
7829;SDS011;3960;51.86894000;5.39848000;2023-05-16T12:53:04;9.52;;;1.13;;
7829;SDS011;3960;51.86894000;5.39848000;2023-05-16T12:55:29;5.20;;;1.38;;
7829;SDS011;3960;51.86894000;5.39848000;2023-05-16T12:57:55;4.38;;;1.40;;
7829;SDS011;3960;51.86894000;5.39848000;2023-05-16T13:00:22;8.80;;;1.52;;
7829;SDS011;3960;51.86894000;5.39848000;2023-05-16T13:02:47;5.00;;;1.55;;
7829;SDS011;3960;51.86894000;5.39848000;2023-05-16T13:05:12;3.30;;;1.23;;
7829;SDS011;3960;51.86894000;5.39848000;2023-05-16T13:07:38;6.70;;;1.52;;
7829;SDS011;3960;51.86894000;5.39848000;2023-05-16T13:10:08;5.00;;;1.20;;
7829;SDS011;3960;51.86894000;5.39848000;2023-05-16T13:12:35;6.30;;;1.52;;
7829;SDS011;3960;51.86894000;5.39848000;2023-05-16T13:15:01;6.00;;;1.50;;
7829;SDS011;3960;51.86894000;5.39848000;2023-05-16T13:17:26;7.43;;;1.60;;
7829;SDS011;3960;51.86894000;5.39848000;2023-05-16T13:19:54;6.80;;;1.50;;
7829;SDS011;3960;51.86894000;5.39848000;2023-05-16T13:22:19;6.05;;;1.58;;
7829;SDS011;3960;51.86894000;5.39848000;2023-05-16T13:24:44;6.65;;;1.67;;
7829;SDS011;3960;51.86894000;5.39848000;2023-05-16T13:27:10;8.98;;;1.40;;
7829;SDS011;3960;51.86894000;5.39848000;2023-05-16T13:29:35;5.38;;;1.73;;
7829;SDS011;3960;51.86894000;5.39848000;2023-05-16T13:32:00;2.92;;;1.50;;
7829;SDS011;3960;51.86894000;5.39848000;2023-05-16T13:34:26;5.97;;;1.55;;